NCAR-RAP Real-Time Weather Data

Output produced by METARs form (10 April 2020  05:38 UTC)
found at http://weather.rap.ucar.edu/surface/
 
KTCL 100453Z 36007KT 8SM BKN070 18/04 A2988 RMK AO2 SLP117 T01780044
KTCL 100353Z 35006KT 9SM FEW080 18/07 A2989 RMK AO2 SLP119 T01830067
KTCL 100253Z 36004KT 9SM CLR 19/08 A2988 RMK AO2 SLP117 T01890083 53022
KTCL 100153Z 35009KT 10SM CLR 20/09 A2987 RMK AO2 SLP112 T02000089
KTCL 100053Z 34008KT 10SM CLR 21/10 A2983 RMK AO2 SLP101 T02110100
KTCL 092353Z 33004KT 10SM CLR 23/10 A2982 RMK AO2 SLP096 T02280100 10267 20228 55003
KTCL 092253Z 32006KT 10SM CLR 24/12 A2981 RMK AO2 SLP093 T02440122
KTCL 092153Z 32008KT 10SM CLR 26/11 A2981 RMK AO2 SLP093 T02560106
KTCL 092053Z VRB05KT 10SM CLR 26/13 A2983 RMK AO2 SLP097 T02610128 56020
KTCL 091953Z 01005KT 10SM CLR 27/13 A2984 RMK AO2 SLP103 T02670133
KTCL 091853Z 10SM CLR 26/15 A2987 RMK AO2 SLP111 T02560150
KTCL 091753Z 03010G14KT 10SM FEW035 24/14 A2989 RMK AO2 SLP117 60000 T02440144 10244 20178 58005
KTCL 091653Z 34008KT 10SM SCT029 23/16 A2990 RMK AO2 SLP124 T02330156
KTCL 091620Z 03007KT 10SM SCT023 23/17 A2990 RMK AO2 T02280167
KTCL 091553Z 36008KT 10SM BKN022 21/16 A2991 RMK AO2 SLP127 T02110156
KTCL 091453Z 36010KT 10SM BKN018 OVC024 21/16 A2990 RMK AO2 SLP124 60000 T02060161 51031
KTCL 091414Z 31010KT 10SM BKN015 20/17 A2988 RMK AO2 T02000167
KTCL 091353Z 31008KT 10SM FEW017 20/17 A2987 RMK AO2 SLP114 T02000167
KTCL 091253Z 26005KT 10SM CLR 19/17 A2987 RMK AO2 RAE1158 SLP112 P0000 T01890172
KTCL 091153Z 22005KT 8SM -RA FEW075 BKN110 18/16 A2981 RMK AO2 TSE09 SLP093 P0024 60026 70034 T01830161 10217 20178 50011
KTCL 091129Z 12006KT 10SM -RA FEW080 OVC110 18/17 A2980 RMK AO2 LTG DSNT E AND SE TSE09 P0022 T01780167
KTCL 091115Z AUTO 10006KT 10SM VCTS -RA FEW015 SCT045 BKN110 18/16 A2983 RMK AO2 LTG DSNT ALQDS TSE09 P0022 T01830161
KTCL 091107Z AUTO 03006KT 4SM -TSRA BR FEW017 BKN095 OVC110 18/17 A2984 RMK AO2 LTG DSNT ALQDS P0021 T01830167
KTCL 091056Z AUTO 30011G24KT 270V330 1 1/2SM -TSRA BR FEW013 BKN044 OVC050 19/17 A2989 RMK AO2 LTG DSNT ALQDS PRESRR P0018 T01890167
KTCL 091053Z AUTO 30018G23KT 9SM -TSRA BKN047 BKN060 OVC090 19/17 A2989 RMK AO2 LTG DSNT SW-N RAB45 TSB47 PRESRR SLP119 P0002 T01940167
KTCL 090953Z AUTO 06004KT 10SM FEW050 SCT065 SCT090 19/17 A2978 RMK AO2 RAE05 SLP081 P0000 T01940167
KTCL 090853Z AUTO 35011G16KT 9SM -RA FEW009 BKN055 OVC070 22/17 A2978 RMK AO2 RAB41 SLP080 P0000 60000 T02170172 53016
KTCL 090850Z AUTO 36012KT 8SM -RA FEW009 BKN055 OVC070 22/18 A2977 RMK AO2 RAB41 P0000
KTCL 090849Z AUTO 35010KT 8SM -RA FEW009 BKN018 OVC055 22/19 A2977 RMK AO2 RAB41 P0000
KTCL 090753Z AUTO 18004KT 5SM BR OVC011 21/19 A2973 RMK AO2 CIG 007V014 SLP065 T02060194
KTCL 090725Z AUTO 17003KT 6SM BR BKN011 BKN017 BKN024 20/19 A2973 RMK AO2 T02000189
KTCL 090653Z AUTO 17003KT 5SM BR CLR 19/18 A2973 RMK AO2 SLP064 T01890183